Time;durP1;ratioP1;P1;durP2;ratioP2;P2;SDS_P1;SDS_P2;PMS_P1;PMS_P2;Temp;Humidity;BMP_temperature;BMP_pressure;BME280_temperature;BME280_humidity;BME280_pressure;Samples;Min_cycle;Max_cycle;Signal;HPM_P1;HPM_P2
2023/03/28 00:02:02;;;;;;;14.20;6.60;;;;;;;-2.50;67.55;99783.30;130586;1259;107436;-72
2023/03/28 00:05:10;;;;;;;13.00;6.10;;;;;;;-2.56;67.91;99777.88;130801;1257;107905;-72
2023/03/28 00:08:15;;;;;;;25.40;14.30;;;;;;;-2.54;67.97;99775.98;130591;1254;209094;-72
2023/03/28 00:11:22;;;;;;;18.20;10.10;;;;;;;-2.58;67.74;99771.69;130784;1266;107494;-73
2023/03/28 00:14:28;;;;;;;21.20;10.90;;;;;;;-2.60;68.04;99766.90;130780;1258;106523;-73
2023/03/28 00:17:33;;;;;;;16.90;9.00;;;;;;;-2.66;67.68;99759.09;130840;1256;107724;-73
2023/03/28 00:20:41;;;;;;;14.20;7.10;;;;;;;-2.72;68.26;99755.05;130781;1256;107490;-72
2023/03/28 00:23:51;;;;;;;13.60;7.60;;;;;;;-2.74;68.01;99753.91;130730;1254;108822;-72
2023/03/28 00:26:59;;;;;;;15.20;6.80;;;;;;;-2.77;68.11;99757.54;130784;1254;108504;-72
2023/03/28 00:30:08;;;;;;;16.20;6.60;;;;;;;-2.78;68.30;99753.75;130755;1256;109264;-72
2023/03/28 00:33:13;;;;;;;12.10;6.00;;;;;;;-2.79;67.96;99760.39;130915;1254;107199;-72
2023/03/28 00:36:21;;;;;;;14.00;7.10;;;;;;;-2.79;67.86;99761.81;130644;1259;105362;-73
2023/03/28 00:39:28;;;;;;;13.00;6.10;;;;;;;-2.78;67.86;99762.48;130797;1256;107021;-71
2023/03/28 00:42:34;;;;;;;13.10;6.70;;;;;;;-2.77;67.97;99760.86;130812;1258;109353;-72
2023/03/28 00:45:40;;;;;;;16.70;6.90;;;;;;;-2.75;67.76;99760.02;130844;1258;107530;-72
2023/03/28 00:48:51;;;;;;;10.50;6.10;;;;;;;-2.75;68.16;99759.55;130895;1258;107478;-71
2023/03/28 00:52:02;;;;;;;11.60;5.90;;;;;;;-2.75;67.82;99758.82;130713;1258;109337;-72
2023/03/28 00:55:14;;;;;;;14.30;6.40;;;;;;;-2.76;67.80;99761.29;130831;1253;107377;-72
2023/03/28 00:58:26;;;;;;;12.90;5.30;;;;;;;-2.69;67.86;99761.67;130884;1256;107483;-72
2023/03/28 01:01:31;;;;;;;13.90;6.00;;;;;;;-2.62;67.97;99764.40;130801;1257;106473;-72
2023/03/28 01:04:45;;;;;;;14.40;6.80;;;;;;;-2.57;67.58;99766.23;130606;1255;107474;-73
2023/03/28 01:07:57;;;;;;;13.40;6.80;;;;;;;-2.54;67.49;99763.15;130578;1254;107657;-72
2023/03/28 01:11:03;;;;;;;14.80;7.00;;;;;;;-2.55;67.65;99756.74;130558;1260;108695;-71
2023/03/28 01:14:14;;;;;;;14.80;6.80;;;;;;;-2.63;67.16;99754.55;130582;1253;107390;-72
2023/03/28 01:17:20;;;;;;;13.00;6.50;;;;;;;-2.72;67.25;99751.73;130661;1254;107399;-71
2023/03/28 01:20:55;;;;;;;15.40;6.60;;;;;;;-2.76;67.51;99754.69;130873;1253;108470;-72
2023/03/28 01:24:28;;;;;;;11.80;6.10;;;;;;;-2.77;67.37;99752.83;130538;1257;108635;-72
2023/03/28 01:27:41;;;;;;;15.00;6.70;;;;;;;-2.79;67.46;99752.61;130576;1253;107403;-72
2023/03/28 01:31:18;;;;;;;15.50;6.80;;;;;;;-2.87;67.45;99749.70;130598;1257;107497;-71
2023/03/28 01:35:28;;;;;;;15.20;6.40;;;;;;;-2.95;67.20;99746.47;130626;1257;108159;-72
2023/03/28 01:38:41;;;;;;;15.80;6.90;;;;;;;-3.03;67.78;99740.45;130291;1260;107430;-72
2023/03/28 01:41:55;;;;;;;13.50;6.30;;;;;;;-3.02;67.77;99734.65;130268;1264;107260;-71
2023/03/28 01:45:13;;;;;;;16.00;7.10;;;;;;;-2.97;67.78;99737.17;130613;1259;107535;-72
2023/03/28 01:48:28;;;;;;;13.70;6.60;;;;;;;-2.89;67.79;99734.15;130490;1254;107412;-72
2023/03/28 01:51:48;;;;;;;17.60;7.10;;;;;;;-2.81;67.95;99730.24;130698;1261;108635;-72
2023/03/28 01:55:04;;;;;;;17.90;7.50;;;;;;;-2.71;67.66;99726.95;130721;1259;107454;-71
2023/03/28 01:58:16;;;;;;;16.10;7.40;;;;;;;-2.63;67.92;99723.05;130529;1259;107475;-70
2023/03/28 02:01:30;;;;;;;16.00;7.70;;;;;;;-2.55;68.03;99717.23;130598;1257;107718;-70
2023/03/28 02:04:47;;;;;;;18.30;8.00;;;;;;;-2.46;68.09;99718.46;130581;1256;107550;-70
2023/03/28 02:07:53;;;;;;;16.00;7.70;;;;;;;-2.43;68.20;99718.79;130617;1256;107497;-72
2023/03/28 02:11:10;;;;;;;16.70;7.30;;;;;;;-2.40;68.46;99713.23;130790;1257;107569;-72
2023/03/28 02:14:28;;;;;;;17.10;7.30;;;;;;;-2.39;68.29;99714.25;130804;1256;107561;-72
2023/03/28 02:18:01;;;;;;;16.20;7.90;;;;;;;-2.48;67.66;99711.59;130747;1254;107507;-72
2023/03/28 02:21:31;;;;;;;15.40;7.90;;;;;;;-2.58;68.13;99711.41;130799;1267;107938;-72
2023/03/28 02:24:50;;;;;;;16.00;7.50;;;;;;;-2.60;68.11;99716.42;130770;1254;107465;-71
2023/03/28 02:28:27;;;;;;;15.60;7.60;;;;;;;-2.58;68.17;99716.83;130295;1262;105761;-73
2023/03/28 02:32:02;;;;;;;20.10;8.60;;;;;;;-2.54;68.52;99716.98;130776;1276;107569;-71
2023/03/28 02:35:08;;;;;;;19.60;8.60;;;;;;;-2.49;68.79;99707.81;130853;1254;106957;-72
2023/03/28 02:38:27;;;;;;;17.30;8.30;;;;;;;-2.42;68.82;99706.91;130789;1257;108273;-73
2023/03/28 02:41:44;;;;;;;19.10;8.20;;;;;;;-2.38;68.78;99702.84;130792;1257;106556;-74
2023/03/28 02:45:06;;;;;;;17.50;8.40;;;;;;;-2.28;69.42;99704.61;130697;1257;107507;-73
2023/03/28 02:48:26;;;;;;;15.20;7.60;;;;;;;-2.18;69.41;99700.55;130955;1256;106544;-73
2023/03/28 02:51:39;;;;;;;19.40;7.80;;;;;;;-2.07;69.07;99696.11;132483;1254;107495;-72
2023/03/28 02:54:52;;;;;;;17.60;8.10;;;;;;;-1.94;68.87;99694.15;130822;1274;107244;-73
2023/03/28 02:58:13;;;;;;;16.60;7.70;;;;;;;-1.81;68.92;99688.53;130796;1256;107454;-73
2023/03/28 03:01:19;;;;;;;18.40;8.20;;;;;;;-1.71;69.02;99676.25;130800;1257;107567;-72
2023/03/28 03:04:25;;;;;;;19.10;8.20;;;;;;;-1.60;68.98;99675.11;130760;1253;107423;-73
2023/03/28 03:07:31;;;;;;;17.90;8.70;;;;;;;-1.52;68.95;99672.71;130688;1260;107535;-73
2023/03/28 03:10:37;;;;;;;17.30;8.40;;;;;;;-1.43;69.24;99674.29;130768;1253;106409;-73
2023/03/28 03:13:43;;;;;;;17.40;8.70;;;;;;;-1.38;69.33;99670.80;130750;1254;107529;-72
2023/03/28 03:16:50;;;;;;;16.50;8.20;;;;;;;-1.37;69.20;99670.94;130624;1259;107528;-73
2023/03/28 03:19:58;;;;;;;18.30;8.30;;;;;;;-1.39;68.93;99669.46;130814;1253;107937;-72
2023/03/28 03:23:12;;;;;;;15.90;8.10;;;;;;;-1.43;68.84;99668.71;130769;1258;108154;-73
2023/03/28 03:26:19;;;;;;;23.00;13.40;;;;;;;-1.42;69.23;99667.92;130756;1254;107436;-73
2023/03/28 03:29:40;;;;;;;18.40;9.20;;;;;;;-1.43;69.33;99666.23;131010;1251;107440;-72
2023/03/28 03:32:46;;;;;;;16.80;8.50;;;;;;;-1.39;69.37;99666.33;131010;1251;107493;-73
2023/03/28 03:35:52;;;;;;;15.80;8.30;;;;;;;-1.31;69.68;99665.16;131039;1253;107540;-72
2023/03/28 03:38:58;;;;;;;15.40;8.10;;;;;;;-1.22;69.55;99664.47;131352;1251;107577;-73
2023/03/28 03:42:04;;;;;;;15.60;8.20;;;;;;;-1.15;69.81;99661.75;131365;1250;107525;-73
2023/03/28 03:45:12;;;;;;;15.70;8.20;;;;;;;-1.07;69.89;99655.34;131011;1250;107461;-72
2023/03/28 03:48:20;;;;;;;18.80;9.50;;;;;;;-0.98;69.74;99657.61;131070;1251;107519;-73
2023/03/28 03:51:27;;;;;;;15.70;8.60;;;;;;;-0.91;69.89;99655.58;131016;1250;107499;-73
2023/03/28 03:54:34;;;;;;;18.00;9.70;;;;;;;-0.85;70.10;99655.39;130970;1251;107485;-73
2023/03/28 03:57:40;;;;;;;20.30;10.40;;;;;;;-0.80;70.65;99652.25;131001;1266;107228;-72
2023/03/28 04:00:47;;;;;;;18.90;10.10;;;;;;;-0.74;70.82;99651.75;130955;1255;107529;-72
2023/03/28 04:04:12;;;;;;;22.30;10.50;;;;;;;-0.66;71.19;99650.23;131224;1249;108569;-73
2023/03/28 04:07:36;;;;;;;18.10;9.60;;;;;;;-0.54;71.25;99648.21;131260;1255;107522;-73
2023/03/28 04:10:42;;;;;;;20.10;10.50;;;;;;;-0.43;71.34;99646.97;131070;1253;107525;-72
2023/03/28 04:13:47;;;;;;;18.40;9.50;;;;;;;-0.33;71.09;99646.55;131109;1254;107612;-74
2023/03/28 04:16:55;;;;;;;18.00;9.40;;;;;;;-0.25;71.34;99647.10;131250;1253;107540;-73
2023/03/28 04:20:11;;;;;;;18.30;9.10;;;;;;;-0.19;71.27;99647.73;131377;1253;108667;-73
2023/03/28 04:23:24;;;;;;;20.40;10.30;;;;;;;-0.13;71.27;99649.58;131090;1250;107470;-73
2023/03/28 04:26:34;;;;;;;18.40;9.10;;;;;;;-0.08;71.32;99651.71;131129;1255;107498;-71
2023/03/28 04:29:43;;;;;;;15.60;8.80;;;;;;;-0.06;71.35;99652.27;130957;1250;107360;-73
2023/03/28 04:33:07;;;;;;;17.00;9.50;;;;;;;-0.01;71.55;99651.61;131049;1253;107525;-73
2023/03/28 04:36:17;;;;;;;20.20;12.00;;;;;;;0.00;71.61;99656.28;131071;1253;107569;-73
2023/03/28 04:39:27;;;;;;;19.90;10.80;;;;;;;-0.01;71.71;99652.14;131068;1250;107512;-73
2023/03/28 04:42:47;;;;;;;16.90;9.20;;;;;;;-0.02;71.83;99649.76;131004;1250;107583;-72
2023/03/28 04:45:58;;;;;;;15.60;9.40;;;;;;;-0.03;72.14;99646.67;131051;1253;108558;-73
2023/03/28 04:49:03;;;;;;;22.10;13.80;;;;;;;-0.05;72.31;99642.12;131085;1253;107511;-73
2023/03/28 04:52:09;;;;;;;24.10;13.30;;;;;;;-0.07;72.07;99641.16;131060;1253;107521;-73
2023/03/28 04:55:16;;;;;;;21.90;9.90;;;;;;;-0.06;72.02;99644.95;131047;1253;108682;-75
2023/03/28 04:58:23;;;;;;;16.40;8.40;;;;;;;-0.06;72.39;99647.36;130998;1253;107533;-73
2023/03/28 05:01:30;;;;;;;16.80;9.70;;;;;;;-0.04;72.28;99649.57;131331;1251;107512;-73
2023/03/28 05:04:58;;;;;;;18.50;10.10;;;;;;;0.02;72.15;99652.83;130875;1253;105948;-73
2023/03/28 05:08:04;;;;;;;18.30;9.10;;;;;;;0.04;72.13;99655.67;131030;1266;107255;-73
2023/03/28 05:11:10;;;;;;;15.80;8.50;;;;;;;0.06;72.30;99658.55;131039;1253;107548;-73
2023/03/28 05:14:16;;;;;;;15.20;8.80;;;;;;;0.11;72.37;99658.71;131024;1253;107506;-73
2023/03/28 05:17:26;;;;;;;15.80;9.60;;;;;;;0.27;72.50;99658.35;131068;1254;106651;-73
2023/03/28 05:20:36;;;;;;;15.90;10.10;;;;;;;0.38;72.30;99655.34;131135;1253;107559;-72
2023/03/28 05:23:42;;;;;;;15.10;8.20;;;;;;;0.44;72.40;99649.75;130979;1251;107467;-73
2023/03/28 05:26:55;;;;;;;13.30;8.20;;;;;;;0.41;72.53;99652.20;131070;1253;106600;-73
2023/03/28 05:30:02;;;;;;;14.90;8.80;;;;;;;0.32;72.56;99659.39;130979;1250;107433;-73
2023/03/28 05:33:10;;;;;;;13.10;7.90;;;;;;;0.30;73.08;99663.59;131030;1253;107536;-73
2023/03/28 05:36:16;;;;;;;15.60;7.00;;;;;;;0.38;73.30;99656.59;131184;1253;107546;-74
2023/03/28 05:39:22;;;;;;;11.80;7.00;;;;;;;0.58;73.26;99660.83;131107;1253;107501;-72
2023/03/28 05:42:28;;;;;;;10.40;6.20;;;;;;;0.78;73.05;99660.48;131278;1253;107366;-73
2023/03/28 05:45:33;;;;;;;12.00;6.20;;;;;;;0.95;72.94;99664.23;131045;1255;107524;-73
2023/03/28 05:48:51;;;;;;;10.20;6.30;;;;;;;1.13;72.92;99662.14;131161;1253;106009;-72
2023/03/28 05:51:57;;;;;;;8.40;5.40;;;;;;;1.25;72.66;99660.10;131148;1253;107306;-73
2023/03/28 05:55:04;;;;;;;7.90;5.40;;;;;;;1.40;72.56;99660.80;131391;1249;107716;-72
2023/03/28 05:58:11;;;;;;;9.90;6.30;;;;;;;1.54;72.44;99661.67;131128;1253;107257;-74
2023/03/28 06:01:22;;;;;;;9.10;5.20;;;;;;;1.58;72.51;99661.24;131285;1253;107132;-72
2023/03/28 06:04:29;;;;;;;8.90;5.40;;;;;;;1.53;72.40;99657.52;131297;1253;107528;-73
2023/03/28 06:07:35;;;;;;;8.40;5.30;;;;;;;1.51;72.69;99660.84;131195;1250;107489;-72
2023/03/28 06:10:44;;;;;;;9.80;6.40;;;;;;;1.61;72.75;99666.27;131169;1253;108713;-74
2023/03/28 06:14:04;;;;;;;8.40;5.90;;;;;;;1.62;72.60;99663.92;131082;1250;107450;-73
2023/03/28 06:17:10;;;;;;;10.20;6.50;;;;;;;1.66;72.66;99664.54;131080;1254;106875;-73
2023/03/28 06:20:24;;;;;;;9.40;6.10;;;;;;;1.65;72.56;99665.45;131046;1253;108588;-74
2023/03/28 06:23:32;;;;;;;10.70;6.30;;;;;;;1.69;72.70;99667.83;131052;1251;107441;-73
2023/03/28 06:26:38;;;;;;;10.00;5.90;;;;;;;1.72;72.68;99668.85;131209;1253;107500;-71
2023/03/28 06:29:44;;;;;;;9.30;5.80;;;;;;;1.68;72.39;99672.99;131072;1251;108606;-73
2023/03/28 06:32:49;;;;;;;10.50;6.60;;;;;;;1.75;72.66;99673.14;131015;1251;108549;-73
2023/03/28 06:35:55;;;;;;;7.60;5.00;;;;;;;1.91;72.53;99680.41;131009;1251;107383;-74
2023/03/28 06:39:02;;;;;;;8.80;5.20;;;;;;;1.91;72.17;99683.07;130981;1250;107453;-73
2023/03/28 06:42:08;;;;;;;7.60;5.60;;;;;;;1.91;72.33;99684.80;131061;1250;107518;-73
2023/03/28 06:45:22;;;;;;;7.10;5.00;;;;;;;1.94;72.41;99687.70;131004;1250;107449;-73
2023/03/28 06:48:34;;;;;;;8.80;5.60;;;;;;;1.98;72.08;99695.14;131008;1251;107457;-73
2023/03/28 06:52:08;;;;;;;56.00;27.60;;;;;;;2.03;72.46;99694.46;131075;1267;108154;-71
2023/03/28 06:55:16;;;;;;;166.70;72.00;;;;;;;2.06;72.22;99700.72;131199;1251;108175;-73
2023/03/28 06:58:23;;;;;;;297.10;89.10;;;;;;;2.06;71.93;99704.45;131335;1251;107579;-73
2023/03/28 07:01:33;;;;;;;39.00;19.50;;;;;;;2.04;72.23;99707.71;131328;1251;107463;-73
2023/03/28 07:04:45;;;;;;;43.10;27.50;;;;;;;1.92;72.39;99711.41;131322;1256;107525;-71
2023/03/28 07:07:51;;;;;;;104.10;37.90;;;;;;;1.92;72.63;99717.88;130989;1250;107561;-72
2023/03/28 07:10:56;;;;;;;8.80;6.00;;;;;;;2.01;72.60;99716.71;130887;1259;107415;-74
2023/03/28 07:14:02;;;;;;;330.50;114.40;;;;;;;2.06;72.36;99723.75;130954;1256;107645;-73
2023/03/28 07:17:10;;;;;;;255.00;91.50;;;;;;;2.10;72.43;99725.02;131078;1250;107553;-72
2023/03/28 07:20:18;;;;;;;57.30;29.40;;;;;;;2.10;72.43;99727.27;131080;1274;107191;-73
2023/03/28 07:23:24;;;;;;;439.00;241.50;;;;;;;2.19;72.56;99729.79;130851;1251;107540;-73
2023/03/28 07:26:30;;;;;;;19.00;10.60;;;;;;;2.31;72.48;99735.23;130838;1250;107535;-72
2023/03/28 07:29:36;;;;;;;17.10;10.00;;;;;;;2.28;72.42;99734.87;130944;1256;107528;-72
2023/03/28 07:32:41;;;;;;;14.80;8.80;;;;;;;2.20;72.33;99739.72;130859;1250;107540;-72
2023/03/28 07:35:47;;;;;;;18.90;9.70;;;;;;;1.99;72.43;99743.16;130992;1266;107261;-73
2023/03/28 07:38:53;;;;;;;16.60;9.60;;;;;;;1.88;72.91;99752.52;131093;1250;107484;-73
2023/03/28 07:41:59;;;;;;;8.20;5.30;;;;;;;1.71;73.17;99755.15;130842;1250;107490;-72
2023/03/28 07:45:06;;;;;;;9.40;6.40;;;;;;;1.53;73.47;99759.58;130959;1256;107573;-72
2023/03/28 07:48:12;;;;;;;98.80;42.60;;;;;;;1.48;73.95;99761.83;130881;1251;108196;-72
2023/03/28 07:51:17;;;;;;;8.10;5.00;;;;;;;1.60;73.74;99760.85;130934;1250;107339;-73
2023/03/28 07:54:23;;;;;;;7.40;5.70;;;;;;;1.75;73.65;99766.41;130880;1251;107489;-74
2023/03/28 07:57:29;;;;;;;41.20;23.00;;;;;;;1.88;73.34;99771.62;130952;1251;108693;-72
2023/03/28 08:00:41;;;;;;;8.20;5.50;;;;;;;2.14;73.36;99775.27;130945;1252;107447;-72
2023/03/28 08:04:06;;;;;;;18.00;9.90;;;;;;;2.30;72.90;99777.96;131100;1253;107603;-73
2023/03/28 08:07:19;;;;;;;10.30;6.20;;;;;;;2.40;73.10;99777.91;131055;1251;107568;-73
2023/03/28 08:10:25;;;;;;;7.70;5.10;;;;;;;2.39;72.14;99774.65;131054;1251;108586;-73
2023/03/28 08:13:31;;;;;;;11.40;7.70;;;;;;;2.22;72.39;99779.43;131199;1254;105962;-70
2023/03/28 08:16:41;;;;;;;10.50;6.60;;;;;;;2.17;72.49;99785.73;131127;1253;107551;-74
2023/03/28 08:19:47;;;;;;;7.00;5.20;;;;;;;2.15;72.43;99792.00;131237;1255;107548;-73
2023/03/28 08:22:52;;;;;;;5.50;3.70;;;;;;;2.20;72.03;99794.08;131285;1253;107442;-72
2023/03/28 08:26:31;;;;;;;12.20;5.90;;;;;;;2.23;72.87;99799.15;131279;1253;108664;-72
2023/03/28 08:29:36;;;;;;;8.10;4.80;;;;;;;2.08;73.45;99806.33;131284;1263;106902;-72
2023/03/28 08:32:42;;;;;;;5.50;3.80;;;;;;;1.77;75.38;99813.83;131268;1250;107454;-72
2023/03/28 08:35:50;;;;;;;6.60;4.50;;;;;;;1.57;75.77;99818.01;131312;1251;107465;-73
2023/03/28 08:38:59;;;;;;;20.50;10.30;;;;;;;1.39;76.57;99829.38;131306;1253;107655;-71
2023/03/28 08:42:32;;;;;;;8.00;4.70;;;;;;;1.29;76.37;99838.14;131192;1256;107525;-74
2023/03/28 08:45:53;;;;;;;6.00;4.60;;;;;;;1.07;77.56;99868.38;131012;1250;107524;-73
2023/03/28 08:49:04;;;;;;;9.10;6.30;;;;;;;0.80;78.63;99872.21;131079;1257;107677;-73
2023/03/28 08:52:12;;;;;;;8.90;6.30;;;;;;;0.62;79.21;99886.36;131222;1253;107531;-71
2023/03/28 08:55:28;;;;;;;12.90;9.00;;;;;;;0.60;78.57;99887.73;131209;1251;108113;-73
2023/03/28 08:58:46;;;;;;;9.80;6.10;;;;;;;0.63;76.15;99900.45;131091;1253;107535;-72
2023/03/28 09:01:53;;;;;;;7.00;4.80;;;;;;;0.57;71.86;99901.39;131347;1253;107490;-72
2023/03/28 09:04:59;;;;;;;6.00;4.10;;;;;;;0.78;69.33;99910.20;131194;1254;106545;-73
2023/03/28 09:08:19;;;;;;;7.10;4.80;;;;;;;1.11;68.68;99925.19;131339;1253;107504;-71
2023/03/28 09:11:43;;;;;;;5.60;4.10;;;;;;;1.37;66.48;99934.91;131162;1256;107459;-72
2023/03/28 09:15:12;;;;;;;5.90;4.00;;;;;;;1.42;64.09;99953.09;131025;1253;108635;-72
2023/03/28 09:18:41;;;;;;;6.80;4.00;;;;;;;1.55;65.51;99949.66;131041;1253;107598;-72
2023/03/28 09:22:02;;;;;;;12.00;7.10;;;;;;;1.61;65.05;99953.07;131420;1253;108613;-72
2023/03/28 09:25:23;;;;;;;21.70;8.30;;;;;;;1.73;67.24;99960.30;131233;1253;107513;-73
2023/03/28 09:28:41;;;;;;;11.50;5.70;;;;;;;1.86;64.55;99971.19;131034;1268;108443;-72
2023/03/28 09:31:50;;;;;;;6.40;4.00;;;;;;;1.91;63.73;99979.77;131105;1254;107611;-72
2023/03/28 09:34:57;;;;;;;6.10;3.90;;;;;;;1.87;60.96;99990.65;131189;1250;107170;-73
2023/03/28 09:38:08;;;;;;;12.10;5.60;;;;;;;1.82;62.91;99985.00;131058;1256;107247;-73
2023/03/28 09:41:19;;;;;;;9.90;4.90;;;;;;;1.83;60.89;100004.77;131019;1256;107259;-73
2023/03/28 09:44:32;;;;;;;7.50;3.40;;;;;;;1.98;61.12;99996.54;131007;1251;107603;-72
2023/03/28 09:48:22;;;;;;;9.60;4.50;;;;;;;2.22;59.17;100001.77;131006;1253;107530;-73
2023/03/28 09:51:28;;;;;;;19.90;8.10;;;;;;;2.30;57.93;100015.21;131112;1253;107520;-73
2023/03/28 09:54:36;;;;;;;10.00;5.10;;;;;;;2.32;56.01;100016.67;131036;1251;107463;-73
2023/03/28 09:58:00;;;;;;;6.60;2.60;;;;;;;2.35;57.18;100018.73;131071;1253;107607;-73
2023/03/28 10:01:23;;;;;;;5.80;3.10;;;;;;;2.60;57.14;100010.17;131001;1250;107472;-72
2023/03/28 10:04:55;;;;;;;4.50;3.00;;;;;;;2.69;56.09;100017.42;131033;1255;107501;-72
2023/03/28 10:08:24;;;;;;;8.40;3.70;;;;;;;2.69;54.21;100025.02;131114;1256;107561;-73
2023/03/28 10:11:50;;;;;;;3.90;2.40;;;;;;;2.80;54.71;100021.92;131155;1256;107533;-73
2023/03/28 10:14:56;;;;;;;7.30;3.60;;;;;;;2.93;53.25;100034.15;130984;1256;107394;-73
2023/03/28 10:18:30;;;;;;;10.60;4.00;;;;;;;2.99;53.47;100027.42;130966;1256;105751;-73
2023/03/28 10:22:14;;;;;;;6.80;3.20;;;;;;;2.97;52.03;100036.89;130740;1260;105887;-72
2023/03/28 10:25:38;;;;;;;6.60;3.10;;;;;;;2.66;50.28;100039.10;130869;1259;107631;-73
2023/03/28 10:28:43;;;;;;;15.80;6.50;;;;;;;2.52;51.11;100050.91;130818;1269;108629;-73
2023/03/28 10:31:50;;;;;;;7.60;3.80;;;;;;;2.61;54.58;100049.61;130992;1273;107281;-72
2023/03/28 10:35:10;;;;;;;6.20;3.70;;;;;;;2.48;52.78;100070.32;130905;1251;107502;-72
2023/03/28 10:38:26;;;;;;;4.60;2.40;;;;;;;2.26;52.09;100070.25;131134;1264;108622;-73
2023/03/28 10:42:04;;;;;;;5.40;2.60;;;;;;;2.10;51.39;100079.60;130789;1261;107536;-72
2023/03/28 10:45:36;;;;;;;4.20;2.30;;;;;;;2.07;51.36;100089.24;130963;1256;107409;-73
2023/03/28 10:48:49;;;;;;;4.80;2.20;;;;;;;2.19;51.01;100077.38;131048;1256;107533;-73
2023/03/28 10:51:56;;;;;;;5.00;2.60;;;;;;;2.24;48.39;100088.50;131054;1256;107645;-75
2023/03/28 10:55:12;;;;;;;3.70;2.40;;;;;;;2.36;50.06;100083.11;131018;1251;107587;-73
2023/03/28 10:58:40;;;;;;;3.90;2.50;;;;;;;2.46;48.84;100086.65;131096;1256;107441;-72
2023/03/28 11:02:10;;;;;;;4.30;2.50;;;;;;;2.36;49.10;100092.73;131242;1250;107545;-73
2023/03/28 11:05:37;;;;;;;6.90;3.90;;;;;;;2.31;48.29;100091.85;131214;1250;106488;-73
2023/03/28 11:09:08;;;;;;;3.70;2.20;;;;;;;2.41;46.51;100104.23;131116;1251;107533;-73
2023/03/28 11:12:33;;;;;;;4.00;2.20;;;;;;;2.59;46.90;100099.08;131168;1255;107554;-74
2023/03/28 11:15:49;;;;;;;4.30;2.40;;;;;;;2.77;47.94;100105.06;131029;1255;107520;-73
2023/03/28 11:19:13;;;;;;;2.70;2.10;;;;;;;3.06;48.49;100100.75;131064;1254;106463;-72
2023/03/28 11:22:32;;;;;;;3.40;2.60;;;;;;;3.11;49.25;100107.77;130983;1251;107463;-73
2023/03/28 11:25:45;;;;;;;3.80;3.00;;;;;;;3.18;49.11;100109.40;131139;1256;108677;-73
2023/03/28 11:29:32;;;;;;;4.80;3.00;;;;;;;3.11;48.64;100131.46;130717;1257;107365;-73
2023/03/28 11:32:44;;;;;;;4.90;2.50;;;;;;;3.01;49.89;100128.99;131015;1257;107439;-72
2023/03/28 11:35:54;;;;;;;3.70;3.00;;;;;;;3.09;48.96;100125.67;131325;1256;107499;-72
2023/03/28 11:39:06;;;;;;;3.70;2.20;;;;;;;3.00;49.46;100121.70;131011;1265;109403;-73
2023/03/28 11:42:19;;;;;;;4.70;2.10;;;;;;;3.16;49.93;100121.98;130998;1261;107422;-73
2023/03/28 11:45:30;;;;;;;4.20;2.30;;;;;;;3.39;48.85;100121.93;130910;1257;105573;-73
2023/03/28 11:48:43;;;;;;;3.70;2.20;;;;;;;3.28;48.64;100132.61;130945;1256;108557;-73
2023/03/28 11:52:01;;;;;;;4.00;2.40;;;;;;;3.05;49.91;100130.99;131238;1258;107436;-72
2023/03/28 11:55:16;;;;;;;2.90;2.10;;;;;;;2.91;48.07;100141.87;131187;1255;108024;-73
2023/03/28 11:58:26;;;;;;;3.80;2.40;;;;;;;2.71;48.19;100160.29;131045;1257;107434;-73
2023/03/28 12:01:36;;;;;;;4.00;2.50;;;;;;;2.38;48.82;100162.63;131004;1257;107491;-73
2023/03/28 12:04:49;;;;;;;4.70;2.50;;;;;;;2.16;49.95;100178.70;131058;1256;107478;-72
2023/03/28 12:08:00;;;;;;;4.60;2.30;;;;;;;2.11;49.98;100185.85;130989;1257;128756;-73
2023/03/28 12:11:16;;;;;;;4.30;2.20;;;;;;;2.11;48.59;100180.75;130993;1257;106255;-72
2023/03/28 12:14:43;;;;;;;3.30;2.20;;;;;;;2.23;48.89;100177.87;131139;1255;107501;-71
2023/03/28 12:18:04;;;;;;;3.70;2.30;;;;;;;2.56;49.38;100183.95;131210;1263;107965;-72
2023/03/28 12:21:18;;;;;;;3.40;2.30;;;;;;;2.67;49.69;100190.92;131265;1255;106529;-72
2023/03/28 12:24:33;;;;;;;3.30;1.80;;;;;;;2.70;49.09;100192.29;131023;1251;106269;-71
2023/03/28 12:27:55;;;;;;;5.10;2.40;;;;;;;2.57;48.61;100187.94;131038;1255;107445;-71
2023/03/28 12:31:11;;;;;;;3.40;1.80;;;;;;;2.26;47.18;100193.48;131088;1256;108112;-71
2023/03/28 12:34:25;;;;;;;3.10;2.10;;;;;;;1.88;47.00;100200.88;130901;1269;107506;-71
2023/03/28 12:38:03;;;;;;;2.50;1.80;;;;;;;1.93;48.03;100202.96;131145;1257;107411;-71
2023/03/28 12:41:15;;;;;;;3.10;1.90;;;;;;;2.23;48.15;100198.42;131136;1254;107534;-71
2023/03/28 12:44:25;;;;;;;3.90;2.50;;;;;;;2.37;47.74;100197.49;131242;1273;106193;-71
2023/03/28 12:47:36;;;;;;;5.20;2.60;;;;;;;2.37;48.49;100211.54;130952;1257;107229;-72
2023/03/28 12:50:50;;;;;;;3.70;2.20;;;;;;;2.35;47.82;100210.42;130835;1257;107009;-71
2023/03/28 12:54:09;;;;;;;3.30;2.00;;;;;;;2.37;47.74;100213.84;131040;1257;107448;-71
2023/03/28 12:57:43;;;;;;;4.80;2.30;;;;;;;2.42;47.72;100217.52;131027;1256;107553;-71
2023/03/28 13:01:27;;;;;;;4.30;2.70;;;;;;;2.43;47.69;100212.35;131271;1254;108683;-71
2023/03/28 13:05:00;;;;;;;4.00;2.60;;;;;;;2.61;48.69;100216.77;130951;1256;107618;-72
2023/03/28 13:08:16;;;;;;;4.10;3.00;;;;;;;2.75;47.63;100213.38;131307;1257;107495;-72
2023/03/28 13:11:30;;;;;;;4.70;2.50;;;;;;;2.89;47.60;100213.46;131336;1263;105695;-71
2023/03/28 13:14:38;;;;;;;5.40;3.50;;;;;;;2.76;46.68;100217.39;131020;1264;108142;-74
2023/03/28 13:17:49;;;;;;;5.00;3.00;;;;;;;2.62;47.92;100219.73;131218;1253;108894;-73
2023/03/28 13:20:55;;;;;;;4.10;2.20;;;;;;;2.62;48.35;100223.37;131358;1263;108660;-72
2023/03/28 13:24:01;;;;;;;4.20;2.40;;;;;;;2.61;47.96;100222.21;131091;1254;107283;-73
2023/03/28 13:27:13;;;;;;;6.80;4.80;;;;;;;2.55;47.97;100236.70;131074;1251;107617;-72
2023/03/28 13:30:23;;;;;;;3.20;1.90;;;;;;;2.33;47.88;100247.78;131354;1253;107527;-73
2023/03/28 13:33:32;;;;;;;4.40;2.70;;;;;;;2.15;49.08;100243.70;131373;1263;105940;-71
2023/03/28 13:36:38;;;;;;;5.80;2.40;;;;;;;2.09;49.98;100244.77;131151;1251;108031;-72
2023/03/28 13:39:53;;;;;;;4.10;2.50;;;;;;;1.99;49.75;100247.86;131122;1253;107518;-73
2023/03/28 13:43:01;;;;;;;4.00;2.40;;;;;;;2.00;49.48;100244.86;131197;1251;107400;-71
2023/03/28 13:46:11;;;;;;;3.00;2.00;;;;;;;2.05;49.20;100244.14;131095;1253;108119;-73
2023/03/28 13:49:20;;;;;;;4.20;2.20;;;;;;;1.97;48.27;100242.40;131172;1254;107535;-73
2023/03/28 13:52:26;;;;;;;3.50;2.20;;;;;;;1.81;48.24;100254.11;131158;1263;107697;-72
2023/03/28 13:55:32;;;;;;;4.60;3.10;;;;;;;1.66;50.03;100267.52;130992;1263;107791;-72
2023/03/28 13:58:38;;;;;;;6.40;4.10;;;;;;;1.46;53.68;100280.46;130919;1263;107896;-72
2023/03/28 14:01:49;;;;;;;6.80;2.60;;;;;;;1.33;52.78;100284.24;131025;1255;106572;-71
2023/03/28 14:05:03;;;;;;;6.30;2.70;;;;;;;1.24;51.69;100276.55;130983;1251;106558;-73
2023/03/28 14:08:24;;;;;;;6.40;3.70;;;;;;;1.26;51.64;100279.25;131266;1257;107263;-70
2023/03/28 14:11:32;;;;;;;12.50;5.90;;;;;;;1.28;51.54;100282.98;131031;1253;107574;-74
2023/03/28 14:14:41;;;;;;;27.80;9.80;;;;;;;1.29;51.63;100283.61;131102;1264;109380;-73
2023/03/28 14:17:46;;;;;;;17.70;6.60;;;;;;;1.33;51.60;100285.29;131074;1251;108611;-73
2023/03/28 14:20:54;;;;;;;25.40;9.70;;;;;;;1.39;51.59;100288.09;131030;1251;107482;-72
2023/03/28 14:24:02;;;;;;;13.00;5.70;;;;;;;1.37;51.17;100291.73;131028;1252;108766;-72
2023/03/28 14:27:09;;;;;;;7.80;4.10;;;;;;;1.31;51.47;100301.86;131179;1263;107513;-72
2023/03/28 14:30:21;;;;;;;6.20;3.50;;;;;;;1.20;54.46;100311.85;131124;1254;107277;-72
2023/03/28 14:33:32;;;;;;;5.30;3.20;;;;;;;1.05;54.23;100309.56;130948;1253;107163;-71
2023/03/28 14:36:57;;;;;;;6.20;2.70;;;;;;;1.08;54.50;100315.84;131137;1251;107341;-72
2023/03/28 14:40:18;;;;;;;6.50;3.20;;;;;;;1.15;53.31;100305.63;131096;1254;106259;-71
2023/03/28 14:43:29;;;;;;;8.80;4.80;;;;;;;1.23;52.81;100304.83;130907;1251;108136;-72
2023/03/28 14:46:35;;;;;;;6.80;3.70;;;;;;;1.38;52.28;100303.59;131264;1253;107379;-72